Time;durP1;ratioP1;P1;durP2;ratioP2;P2;SDS_P1;SDS_P2;PMS_P1;PMS_P2;Temp;Humidity;BMP_temperature;BMP_pressure;BME280_temperature;BME280_humidity;BME280_pressure;Samples;Min_cycle;Max_cycle;Signal;HPM_P1;HPM_P2
2023/05/07 00:04:28;;;;;;;95.20;47.40;;;;;;;9.95;100.00;101819.03;10410020;28;20038;-71
2023/05/07 00:09:29;;;;;;;100.53;48.95;;;;;;;9.87;100.00;101806.41;10411718;28;20373;-71
2023/05/07 00:14:29;;;;;;;109.68;51.47;;;;;;;10.01;100.00;101828.31;10411871;28;20099;-70
2023/05/07 00:19:30;;;;;;;95.78;50.78;;;;;;;10.04;100.00;101828.69;10393371;28;20100;-71
2023/05/07 00:24:31;;;;;;;90.72;46.38;;;;;;;10.06;100.00;101822.94;10376917;28;20068;-71
2023/05/07 00:29:31;;;;;;;101.93;50.22;;;;;;;10.09;100.00;101833.50;10399260;28;20094;-71
2023/05/07 00:34:32;;;;;;;92.07;49.20;;;;;;;10.12;100.00;101829.47;10382576;28;20084;-71
2023/05/07 00:39:32;;;;;;;92.18;47.95;;;;;;;10.08;100.00;101823.56;10418311;28;20042;-71
2023/05/07 00:44:33;;;;;;;91.03;47.67;;;;;;;10.08;100.00;101816.16;10368930;28;20057;-70
2023/05/07 00:49:41;;;;;;;89.22;47.53;;;;;;;10.15;100.00;101831.75;10400303;28;20038;-71
2023/05/07 00:54:42;;;;;;;89.82;48.67;;;;;;;9.60;100.00;101745.34;10368315;28;20030;-70
2023/05/07 00:59:42;;;;;;;84.25;45.40;;;;;;;10.14;100.00;101839.16;10366322;28;20038;-71
2023/05/07 01:04:43;;;;;;;81.32;44.85;;;;;;;10.15;100.00;101835.34;10382729;28;20108;-71
2023/05/07 01:09:43;;;;;;;88.35;45.88;;;;;;;10.12;100.00;101835.78;10401120;28;20120;-70
2023/05/07 01:14:44;;;;;;;97.50;47.05;;;;;;;10.12;100.00;101841.31;10351865;28;20414;-72
2023/05/07 01:19:44;;;;;;;90.68;47.35;;;;;;;10.16;100.00;101841.69;10418094;28;20041;-71
2023/05/07 01:24:45;;;;;;;96.68;48.75;;;;;;;10.10;100.00;101833.25;10381981;28;20121;-72
2023/05/07 01:29:45;;;;;;;98.38;48.55;;;;;;;10.15;100.00;101829.84;10355006;28;20042;-71
2023/05/07 01:34:46;;;;;;;105.85;51.20;;;;;;;9.76;100.00;101765.94;10342327;28;20053;-71
2023/05/07 01:39:47;;;;;;;98.18;49.65;;;;;;;10.22;100.00;101838.03;10357514;28;20050;-72
2023/05/07 01:44:47;;;;;;;94.90;46.65;;;;;;;10.09;100.00;101825.25;10358000;28;20125;-74
2023/05/07 01:49:48;;;;;;;92.88;46.60;;;;;;;10.16;100.00;101837.03;10395310;28;20068;-74
2023/05/07 01:54:48;;;;;;;96.32;47.35;;;;;;;10.09;100.00;101814.25;10347833;28;20045;-75
2023/05/07 01:59:49;;;;;;;96.50;46.88;;;;;;;9.69;100.00;101773.38;10364249;28;20441;-74
2023/05/07 02:04:49;;;;;;;93.93;47.70;;;;;;;10.09;100.00;101825.25;10381912;28;20434;-74
2023/05/07 02:09:50;;;;;;;85.65;45.33;;;;;;;9.98;100.00;101810.31;10365515;28;20045;-73
2023/05/07 02:14:50;;;;;;;93.70;46.90;;;;;;;9.95;100.00;101812.72;10380736;28;20129;-72
2023/05/07 02:19:51;;;;;;;98.63;47.40;;;;;;;9.94;100.00;101828.34;10364944;28;20041;-72
2023/05/07 02:24:51;;;;;;;102.75;47.15;;;;;;;9.92;100.00;101824.16;10394187;28;20037;-71
2023/05/07 02:29:52;;;;;;;102.60;46.53;;;;;;;9.92;100.00;101824.16;10395893;28;20459;-73
2023/05/07 02:34:53;;;;;;;94.57;47.45;;;;;;;9.83;100.00;101816.19;10414029;28;20049;-72
2023/05/07 02:39:53;;;;;;;99.43;48.42;;;;;;;9.77;100.00;101819.84;10380935;28;20044;-72
2023/05/07 02:44:54;;;;;;;99.72;46.65;;;;;;;9.78;100.00;101827.03;10379565;28;20044;-73
2023/05/07 02:49:55;;;;;;;99.32;48.75;;;;;;;9.81;100.00;101829.31;10378592;28;20097;-72
2023/05/07 02:54:55;;;;;;;101.32;49.00;;;;;;;9.84;100.00;101828.88;10395073;28;20041;-74
2023/05/07 02:59:57;;;;;;;95.85;47.42;;;;;;;9.70;100.00;101827.31;10395086;28;20064;-73
2023/05/07 03:04:58;;;;;;;109.10;49.90;;;;;;;9.66;100.00;101828.84;10363508;28;20038;-74
2023/05/07 03:09:58;;;;;;;105.95;49.45;;;;;;;9.55;100.00;101815.81;10412282;28;20417;-73
2023/05/07 03:14:59;;;;;;;102.07;46.78;;;;;;;9.60;100.00;101827.81;10378884;28;20072;-74
2023/05/07 03:19:59;;;;;;;97.57;47.97;;;;;;;9.60;100.00;101821.50;10394448;28;20037;-74
2023/05/07 03:25:00;;;;;;;89.60;45.50;;;;;;;9.55;100.00;101835.06;10393093;28;20033;-73
2023/05/07 03:30:00;;;;;;;86.53;43.92;;;;;;;9.53;100.00;101826.19;10377650;28;20578;-74
2023/05/07 03:35:02;;;;;;;89.82;44.67;;;;;;;9.46;100.00;101827.09;10378642;28;20501;-74
2023/05/07 03:40:03;;;;;;;92.30;42.65;;;;;;;9.47;100.00;101834.28;10411316;28;20033;-73
2023/05/07 03:45:05;;;;;;;86.90;42.97;;;;;;;9.44;100.00;101818.22;10393632;28;20092;-73
2023/05/07 03:50:05;;;;;;;78.03;42.88;;;;;;;9.44;100.00;101826.47;10410695;28;20064;-74
2023/05/07 03:55:07;;;;;;;84.15;41.00;;;;;;;9.39;100.00;101831.81;10393686;28;20030;-73
2023/05/07 04:00:08;;;;;;;86.28;43.58;;;;;;;9.37;100.00;101828.44;10409912;28;20133;-74
2023/05/07 04:05:08;;;;;;;75.57;39.95;;;;;;;9.33;100.00;101824.44;10393993;28;20029;-74
2023/05/07 04:10:09;;;;;;;76.88;42.45;;;;;;;9.27;100.00;101823.44;10376307;28;20033;-74
2023/05/07 04:15:10;;;;;;;74.82;40.55;;;;;;;9.32;100.00;101844.75;10376063;28;20493;-71
2023/05/07 04:20:14;;;;;;;84.75;44.03;;;;;;;9.31;100.00;101848.56;10377178;28;20068;-73
2023/05/07 04:25:15;;;;;;;87.70;43.78;;;;;;;9.31;100.00;101856.81;10375066;28;20072;-73
2023/05/07 04:30:16;;;;;;;79.38;42.53;;;;;;;9.34;100.00;101856.34;10391929;28;20124;-75
2023/05/07 04:35:17;;;;;;;70.05;38.63;;;;;;;9.28;100.00;101858.09;10376153;28;20029;-73
2023/05/07 04:40:17;;;;;;;66.82;38.25;;;;;;;9.16;100.00;101848.03;10360263;28;20065;-74
2023/05/07 04:45:18;;;;;;;71.75;38.33;;;;;;;9.17;100.00;101841.47;10360660;28;20037;-74
2023/05/07 04:50:19;;;;;;;70.28;40.22;;;;;;;9.25;100.00;101866.78;10375587;28;20038;-73
2023/05/07 04:55:20;;;;;;;74.05;41.65;;;;;;;9.24;100.00;101862.34;10391983;28;20060;-73
2023/05/07 05:00:20;;;;;;;74.40;38.63;;;;;;;9.28;100.00;101862.72;10408962;28;20045;-72
2023/05/07 05:05:21;;;;;;;73.28;38.95;;;;;;;9.28;100.00;101854.50;10393774;28;20029;-72
2023/05/07 05:10:21;;;;;;;69.97;39.90;;;;;;;9.22;100.00;101842.50;10392700;28;20441;-73
2023/05/07 05:15:22;;;;;;;84.35;43.78;;;;;;;9.28;100.00;101865.47;10382013;28;20112;-72
2023/05/07 05:20:22;;;;;;;80.80;45.28;;;;;;;9.27;100.00;101866.56;10399992;28;20520;-73
2023/05/07 05:25:23;;;;;;;75.28;42.60;;;;;;;9.24;100.00;101867.84;10379418;28;20044;-72
2023/05/07 05:30:23;;;;;;;78.75;42.90;;;;;;;9.22;100.00;101860.88;10367021;28;20037;-71
2023/05/07 05:35:24;;;;;;;72.20;40.33;;;;;;;9.17;100.00;101860.69;10384452;28;20042;-71
2023/05/07 05:40:24;;;;;;;70.05;38.97;;;;;;;9.27;100.00;101889.38;10399486;28;20038;-72
2023/05/07 05:45:25;;;;;;;60.28;34.17;;;;;;;9.26;100.00;101876.72;10397928;28;20041;-71
2023/05/07 05:50:25;;;;;;;54.47;33.03;;;;;;;9.35;100.00;101884.69;10398416;28;20129;-72
2023/05/07 05:55:26;;;;;;;52.17;30.45;;;;;;;9.40;100.00;101887.59;10398816;28;20084;-72
2023/05/07 06:00:27;;;;;;;50.75;29.40;;;;;;;9.34;100.00;101888.50;10382874;28;20037;-71
2023/05/07 06:05:27;;;;;;;50.78;28.35;;;;;;;9.45;100.00;101882.31;10399490;28;20402;-71
2023/05/07 06:10:28;;;;;;;52.67;29.33;;;;;;;9.54;100.00;101886.44;10414406;28;20029;-70
2023/05/07 06:15:28;;;;;;;47.45;27.88;;;;;;;9.64;100.00;101883.22;10365138;28;20045;-70
2023/05/07 06:20:29;;;;;;;47.97;26.70;;;;;;;9.68;100.00;101889.94;10381396;28;20041;-70
2023/05/07 06:25:29;;;;;;;47.67;27.52;;;;;;;9.76;100.00;101895.19;10385078;28;20057;-71
2023/05/07 06:30:30;;;;;;;43.95;26.05;;;;;;;9.75;100.00;101896.22;10413753;28;20048;-69
2023/05/07 06:35:30;;;;;;;44.47;27.27;;;;;;;9.74;100.00;101900.06;10398410;28;20037;-70
2023/05/07 06:40:30;;;;;;;42.38;25.90;;;;;;;9.72;100.00;101907.69;10415302;28;20037;-70
2023/05/07 06:45:31;;;;;;;45.17;25.73;;;;;;;9.83;100.00;101904.19;10397018;28;20421;-70
2023/05/07 06:50:31;;;;;;;43.90;25.33;;;;;;;9.88;100.00;101898.88;10413232;28;20108;-73
2023/05/07 06:55:32;;;;;;;44.33;26.58;;;;;;;10.01;100.00;101900.66;10394736;28;20038;-70
2023/05/07 07:00:32;;;;;;;41.10;24.77;;;;;;;10.12;100.00;101890.84;10414687;28;20342;-72
2023/05/07 07:05:33;;;;;;;46.10;26.42;;;;;;;10.08;100.00;101901.44;10396821;28;20068;-70
2023/05/07 07:10:33;;;;;;;40.70;25.00;;;;;;;10.06;100.00;101897.25;10395721;28;20049;-70
2023/05/07 07:15:34;;;;;;;38.25;23.45;;;;;;;10.17;100.00;101899.25;10411997;28;20041;-70
2023/05/07 07:20:34;;;;;;;36.65;23.45;;;;;;;10.33;100.00;101913.53;10410515;28;20088;-68
2023/05/07 07:25:35;;;;;;;37.25;22.45;;;;;;;10.48;100.00;101895.59;10408133;28;20064;-70
2023/05/07 07:30:35;;;;;;;39.17;23.92;;;;;;;10.60;100.00;101903.06;10411066;28;20049;-69
2023/05/07 07:35:36;;;;;;;37.92;23.10;;;;;;;10.73;100.00;101910.31;10409928;28;20048;-69
2023/05/07 07:40:36;;;;;;;35.97;22.38;;;;;;;10.78;100.00;101911.31;10412620;28;20061;-70
2023/05/07 07:45:37;;;;;;;34.15;22.65;;;;;;;10.91;100.00;101904.81;10409553;28;20044;-69
2023/05/07 07:50:38;;;;;;;35.13;22.40;;;;;;;11.11;100.00;101899.88;10407538;28;20033;-69
2023/05/07 07:55:39;;;;;;;34.00;22.17;;;;;;;11.31;100.00;101916.16;10409400;28;20128;-71
2023/05/07 08:00:40;;;;;;;34.13;22.95;;;;;;;11.32;100.00;101916.97;10393306;28;20044;-69
2023/05/07 08:05:40;;;;;;;35.97;23.05;;;;;;;11.25;100.00;101913.50;10410640;28;20041;-69
2023/05/07 08:10:41;;;;;;;38.45;22.48;;;;;;;11.37;100.00;101917.13;10392163;28;20060;-69
2023/05/07 08:15:41;;;;;;;33.83;21.90;;;;;;;11.64;100.00;101920.34;10392602;28;20096;-70
2023/05/07 08:20:42;;;;;;;33.35;20.73;;;;;;;11.75;100.00;101907.63;10392320;28;20042;-70
2023/05/07 08:25:42;;;;;;;33.10;20.90;;;;;;;12.03;100.00;101922.69;10375392;28;20087;-70
2023/05/07 08:30:43;;;;;;;27.08;17.90;;;;;;;12.04;100.00;101916.09;10410793;28;20072;-70
2023/05/07 08:35:44;;;;;;;32.70;20.50;;;;;;;11.92;100.00;101921.59;10392755;28;20108;-70
2023/05/07 08:40:44;;;;;;;30.30;18.70;;;;;;;11.90;100.00;101927.34;10376514;28;20034;-70
2023/05/07 08:45:45;;;;;;;31.58;21.30;;;;;;;11.79;100.00;101928.16;10408584;28;20494;-70
2023/05/07 08:50:45;;;;;;;27.65;19.48;;;;;;;11.50;100.00;101881.06;10381019;28;20120;-70
2023/05/07 08:55:46;;;;;;;27.15;18.02;;;;;;;11.81;100.00;101926.00;10414087;28;20099;-70
2023/05/07 09:00:47;;;;;;;28.00;18.98;;;;;;;12.24;100.00;101927.66;10397579;28;20037;-69
2023/05/07 09:05:47;;;;;;;25.17;17.95;;;;;;;12.59;100.00;101924.03;10381627;28;20057;-70
2023/05/07 09:10:48;;;;;;;25.02;17.85;;;;;;;13.01;100.00;101929.34;10383857;28;20041;-70
2023/05/07 09:15:48;;;;;;;22.15;17.30;;;;;;;13.30;100.00;101921.94;10384739;28;20065;-69
2023/05/07 09:20:49;;;;;;;21.75;15.82;;;;;;;13.29;100.00;101908.34;10382794;28;20117;-70
2023/05/07 09:25:49;;;;;;;20.10;15.18;;;;;;;13.45;100.00;101909.47;10398962;28;20102;-70
2023/05/07 09:30:50;;;;;;;19.90;15.73;;;;;;;13.62;100.00;101913.13;10383939;28;20042;-69
2023/05/07 09:35:53;;;;;;;21.35;16.48;;;;;;;13.88;100.00;101922.69;10367876;28;20068;-70
2023/05/07 09:41:14;;;;;;;20.00;15.20;;;;;;;13.86;100.00;101911.03;10383879;28;20033;-70
2023/05/07 09:46:15;;;;;;;19.38;14.82;;;;;;;14.13;100.00;101913.13;10398496;28;20536;-70
2023/05/07 09:51:31;;;;;;;18.67;13.90;;;;;;;14.27;100.00;101891.47;10379826;28;20038;-70
2023/05/07 09:56:31;;;;;;;17.47;14.07;;;;;;;14.67;100.00;101888.44;10365308;28;20056;-69
2023/05/07 10:01:32;;;;;;;18.92;13.75;;;;;;;15.20;100.00;101887.97;10397024;28;20030;-70
2023/05/07 10:06:32;;;;;;;14.73;12.60;;;;;;;15.08;100.00;101880.63;10381044;28;20045;-70
2023/05/07 10:11:36;;;;;;;13.70;11.85;;;;;;;15.18;100.00;101890.16;10381509;28;20037;-70
2023/05/07 10:16:37;;;;;;;15.90;13.02;;;;;;;14.97;100.00;101887.16;10415438;28;20089;-70
2023/05/07 10:21:38;;;;;;;18.73;13.90;;;;;;;14.85;100.00;101892.00;10364658;28;20045;-70
2023/05/07 10:26:43;;;;;;;17.85;13.18;;;;;;;14.93;100.00;101899.88;10324654;28;20045;-70
2023/05/07 10:31:55;;;;;;;16.63;12.35;;;;;;;15.43;100.00;101900.69;10324627;28;20057;-71
2023/05/07 10:36:56;;;;;;;13.02;11.35;;;;;;;16.10;100.00;101896.56;10356383;28;20044;-69
2023/05/07 10:41:56;;;;;;;13.93;11.80;;;;;;;16.83;100.00;101896.75;10356010;28;20068;-70
2023/05/07 10:47:08;;;;;;;16.73;12.18;;;;;;;16.88;100.00;101898.72;10374837;28;20048;-71
2023/05/07 10:52:23;;;;;;;15.18;11.50;;;;;;;16.94;100.00;101905.97;10415004;28;20096;-70
2023/05/07 10:57:37;;;;;;;14.48;10.52;;;;;;;17.28;100.00;101894.38;10380766;28;20053;-71
2023/05/07 11:02:59;;;;;;;14.07;10.55;;;;;;;17.37;100.00;101898.31;10364030;28;20060;-72
2023/05/07 11:08:01;;;;;;;12.13;10.82;;;;;;;17.90;100.00;101901.75;10412887;28;20041;-71
2023/05/07 11:13:01;;;;;;;12.60;10.48;;;;;;;18.08;100.00;101891.13;10395375;28;20030;-73
2023/05/07 11:18:03;;;;;;;13.00;10.63;;;;;;;17.66;100.00;101893.06;10380081;28;20033;-72
2023/05/07 11:23:05;;;;;;;13.70;11.00;;;;;;;17.18;100.00;101883.22;10354013;28;20038;-73
2023/05/07 11:28:10;;;;;;;14.35;12.57;;;;;;;17.08;100.00;101884.06;10354127;28;20088;-72
2023/05/07 11:33:10;;;;;;;14.80;12.45;;;;;;;16.66;100.00;101887.75;10337847;28;20042;-72
2023/05/07 11:38:11;;;;;;;14.35;11.68;;;;;;;16.91;100.00;101887.06;10337753;28;20053;-72
2023/05/07 11:43:12;;;;;;;12.98;11.55;;;;;;;17.44;100.00;101884.97;10338466;28;20061;-71
2023/05/07 11:48:13;;;;;;;13.32;11.85;;;;;;;17.52;100.00;101901.13;10353625;28;20061;-71
2023/05/07 11:53:13;;;;;;;13.77;12.23;;;;;;;17.56;100.00;101893.06;10371347;28;20046;-72
2023/05/07 11:58:20;;;;;;;13.23;11.77;;;;;;;17.80;100.00;101898.94;10353729;28;20057;-72
2023/05/07 12:03:21;;;;;;;13.95;12.30;;;;;;;18.08;100.00;101897.53;10321878;28;20044;-71
2023/05/07 12:08:21;;;;;;;14.88;12.40;;;;;;;18.16;100.00;101887.78;10337590;28;20045;-72
2023/05/07 12:13:23;;;;;;;12.07;10.73;;;;;;;19.14;100.00;101894.75;10354696;28;20098;-73
2023/05/07 12:18:23;;;;;;;12.95;11.65;;;;;;;19.26;100.00;101879.59;10371202;28;20057;-71
2023/05/07 12:23:24;;;;;;;13.00;11.60;;;;;;;19.13;100.00;101879.09;10374260;28;20037;-72
2023/05/07 12:28:25;;;;;;;12.68;10.55;;;;;;;19.16;100.00;101894.44;10401995;28;20044;-79
2023/05/07 12:33:26;;;;;;;11.63;10.38;;;;;;;18.57;100.00;101898.84;10369087;28;20063;-72
2023/05/07 12:38:26;;;;;;;11.40;10.30;;;;;;;18.16;100.00;101893.38;10401450;28;20189;-72
2023/05/07 12:43:28;;;;;;;11.90;10.55;;;;;;;17.80;100.00;101900.84;10419724;28;20033;-73
2023/05/07 12:48:28;;;;;;;10.65;9.55;;;;;;;18.46;100.00;101891.63;10400281;28;20065;-72
2023/05/07 12:53:30;;;;;;;10.32;9.32;;;;;;;18.27;100.00;101881.09;10384336;28;20044;-72
2023/05/07 12:58:33;;;;;;;11.45;8.63;;;;;;;18.42;100.00;101890.50;10400419;28;20104;-73
2023/05/07 13:03:34;;;;;;;10.95;9.85;;;;;;;18.79;100.00;101872.56;10400546;28;20038;-75
2023/05/07 13:08:40;;;;;;;9.50;8.60;;;;;;;19.42;100.00;101883.13;10384546;28;20041;-72
2023/05/07 13:13:40;;;;;;;9.80;8.80;;;;;;;19.06;100.00;101875.81;10345622;28;20123;-71
2023/05/07 13:18:43;;;;;;;10.43;9.32;;;;;;;19.46;100.00;101876.66;10327449;28;20034;-74
2023/05/07 13:23:43;;;;;;;9.70;8.80;;;;;;;18.94;100.00;101883.69;10348084;28;20053;-73
2023/05/07 13:28:44;;;;;;;11.32;9.60;;;;;;;19.00;100.00;101871.38;10385753;28;20068;-74
2023/05/07 13:33:44;;;;;;;10.55;9.63;;;;;;;19.11;100.00;101874.94;10398301;28;20064;-71
2023/05/07 13:38:46;;;;;;;11.73;9.23;;;;;;;19.44;100.00;101878.09;10418200;28;20468;-72
2023/05/07 13:43:46;;;;;;;9.50;8.60;;;;;;;19.13;100.00;101872.69;10418660;28;20029;-74
2023/05/07 13:48:47;;;;;;;10.63;9.63;;;;;;;19.38;100.00;101877.28;10400512;28;20042;-75
2023/05/07 13:53:47;;;;;;;9.23;8.35;;;;;;;20.58;100.00;101853.56;10382132;28;20057;-71
2023/05/07 13:58:48;;;;;;;9.13;7.65;;;;;;;22.39;100.00;101858.88;10380390;28;20038;-70
2023/05/07 14:03:48;;;;;;;8.95;8.13;;;;;;;22.83;100.00;101857.44;10380507;28;21668;-71
2023/05/07 14:08:49;;;;;;;10.60;9.50;;;;;;;22.52;100.00;101856.09;10380357;28;20049;-71
2023/05/07 14:13:49;;;;;;;11.65;9.07;;;;;;;22.67;100.00;101859.72;10399298;28;20489;-71
2023/05/07 14:18:50;;;;;;;10.25;9.18;;;;;;;23.00;100.00;101842.75;10398610;28;20038;-71
2023/05/07 14:23:50;;;;;;;9.60;8.68;;;;;;;23.41;100.00;101862.31;10397344;28;20040;-73
2023/05/07 14:28:51;;;;;;;10.23;9.23;;;;;;;23.87;100.00;101837.88;10395296;28;20105;-74
2023/05/07 14:33:51;;;;;;;11.82;9.20;;;;;;;23.94;100.00;101836.25;10363835;28;20056;-82
2023/05/07 14:38:55;;;;;;;9.88;8.98;;;;;;;23.91;99.29;101839.69;10398126;28;20125;-81
2023/05/07 14:43:56;;;;;;;10.38;9.48;;;;;;;23.81;99.08;101825.91;10382165;28;20034;-79
2023/05/07 14:48:57;;;;;;;11.15;10.07;;;;;;;23.90;98.69;101834.41;10364365;28;20064;-78
2023/05/07 14:53:57;;;;;;;11.45;10.38;;;;;;;22.93;98.85;101837.56;10413366;28;20037;-78
2023/05/07 14:58:58;;;;;;;12.20;10.27;;;;;;;22.81;100.00;101859.72;10378836;28;20029;-79
2023/05/07 15:03:58;;;;;;;11.57;10.38;;;;;;;22.35;100.00;101837.06;10362694;28;20052;-78
2023/05/07 15:08:59;;;;;;;11.48;10.38;;;;;;;23.02;100.00;101871.38;10348369;28;20410;-79
2023/05/07 15:13:59;;;;;;;11.40;10.23;;;;;;;22.53;100.00;101859.72;10381188;28;20042;-80
2023/05/07 15:19:00;;;;;;;11.98;10.88;;;;;;;22.55;100.00;101871.47;10413715;28;20033;-78
2023/05/07 15:24:01;;;;;;;11.07;9.95;;;;;;;22.65;100.00;101868.44;10412584;28;20061;-79
2023/05/07 15:29:03;;;;;;;10.77;9.77;;;;;;;22.64;100.00;101869.59;10378626;28;20042;-79
2023/05/07 15:34:03;;;;;;;10.85;9.73;;;;;;;22.51;100.00;101870.44;10362599;28;20559;-81
2023/05/07 15:39:04;;;;;;;11.10;9.63;;;;;;;21.14;100.00;101867.66;10363622;28;20060;-80
2023/05/07 15:44:04;;;;;;;11.88;10.68;;;;;;;21.05;100.00;101886.28;10378841;28;20045;-78
2023/05/07 15:49:05;;;;;;;11.85;10.13;;;;;;;20.75;100.00;101876.28;10361783;28;20034;-78
2023/05/07 15:54:05;;;;;;;11.35;10.20;;;;;;;20.70;100.00;101887.56;10361327;28;20047;-79
2023/05/07 15:59:06;;;;;;;10.77;9.68;;;;;;;20.80;100.00;101886.63;10360886;28;20038;-78
2023/05/07 16:04:07;;;;;;;10.27;9.25;;;;;;;20.02;100.00;101877.38;10377980;28;20068;-79
2023/05/07 16:09:09;;;;;;;11.15;10.05;;;;;;;19.23;100.00;101894.97;10395861;28;20046;-79
2023/05/07 16:14:09;;;;;;;11.20;9.77;;;;;;;19.38;100.00;101896.81;10395347;28;20041;-77
2023/05/07 16:19:10;;;;;;;11.15;10.13;;;;;;;19.43;100.00;101904.31;10361343;28;20033;-81
2023/05/07 16:24:10;;;;;;;10.98;9.82;;;;;;;19.22;100.00;101912.00;10395731;28;20068;-79
2023/05/07 16:29:11;;;;;;;10.27;9.07;;;;;;;18.94;100.00;101914.38;10360733;28;20034;-78
2023/05/07 16:34:12;;;;;;;10.13;9.13;;;;;;;18.76;100.00;101913.84;10360913;28;20041;-79
2023/05/07 16:39:13;;;;;;;13.02;10.52;;;;;;;18.72;100.00;101923.91;10393997;28;20064;-80
2023/05/07 16:44:13;;;;;;;12.15;10.05;;;;;;;18.54;100.00;101916.13;10360653;28;20038;-81
2023/05/07 16:49:14;;;;;;;10.43;9.27;;;;;;;18.24;100.00;101926.25;10359979;28;20061;-80
2023/05/07 16:54:14;;;;;;;13.77;10.88;;;;;;;17.94;100.00;101941.88;10386935;28;20039;-79
2023/05/07 16:59:15;;;;;;;13.82;10.25;;;;;;;17.59;100.00;101928.72;10401962;28;20092;-80
2023/05/07 17:04:16;;;;;;;12.30;10.13;;;;;;;17.39;100.00;101946.22;10377027;28;20068;-81
2023/05/07 17:09:16;;;;;;;17.60;11.07;;;;;;;17.20;100.00;101937.53;10364022;28;20026;-79
2023/05/07 17:14:17;;;;;;;13.30;11.15;;;;;;;16.98;100.00;101929.38;10384578;28;20071;-81
2023/05/07 17:19:17;;;;;;;12.35;11.05;;;;;;;16.90;100.00;101932.66;10400056;28;20056;-76
2023/05/07 17:24:18;;;;;;;13.45;10.68;;;;;;;16.87;100.00;101955.47;10367157;28;20060;-75
2023/05/07 17:29:18;;;;;;;11.77;10.20;;;;;;;16.70;100.00;101956.47;10366816;28;20424;-75
2023/05/07 17:34:19;;;;;;;11.60;10.45;;;;;;;16.49;100.00;101949.91;10349444;28;20477;-77
2023/05/07 17:39:19;;;;;;;12.63;11.30;;;;;;;16.36;100.00;101955.13;10382664;28;20044;-77
2023/05/07 17:44:20;;;;;;;12.20;10.75;;;;;;;16.25;100.00;101960.59;10383395;28;20196;-76
2023/05/07 17:49:20;;;;;;;12.98;11.35;;;;;;;16.12;100.00;101963.81;10382527;28;20408;-73
2023/05/07 17:54:22;;;;;;;11.90;10.50;;;;;;;16.04;100.00;101962.38;10364271;28;20037;-75
2023/05/07 17:59:23;;;;;;;15.43;11.60;;;;;;;16.01;100.00;101973.19;10382352;28;20042;-78
2023/05/07 18:04:25;;;;;;;13.60;12.20;;;;;;;15.99;100.00;101972.59;10365157;28;20030;-75
2023/05/07 18:09:26;;;;;;;13.32;11.82;;;;;;;15.78;100.00;101969.63;10364505;28;20095;-75
2023/05/07 18:14:26;;;;;;;15.60;11.93;;;;;;;15.74;100.00;101993.47;10382087;28;20109;-76
2023/05/07 18:19:27;;;;;;;11.68;10.48;;;;;;;15.51;100.00;101989.03;10396612;28;20044;-76
2023/05/07 18:24:27;;;;;;;11.98;10.25;;;;;;;15.28;100.00;102013.19;10363771;28;20053;-69
2023/05/07 18:29:28;;;;;;;12.52;11.13;;;;;;;15.02;100.00;102020.31;10416684;28;20516;-76
2023/05/07 18:34:28;;;;;;;13.55;10.50;;;;;;;14.79;100.00;102026.09;10381111;28;20038;-77
2023/05/07 18:39:31;;;;;;;12.43;9.98;;;;;;;14.58;100.00;102025.78;10389915;28;20037;-76
2023/05/07 18:44:36;;;;;;;12.45;11.15;;;;;;;14.40;100.00;102034.31;10371877;28;20037;-72
2023/05/07 18:49:36;;;;;;;15.88;11.30;;;;;;;14.13;100.00;102030.28;10412982;28;20044;-76
2023/05/07 18:54:37;;;;;;;13.10;11.10;;;;;;;14.11;100.00;102053.78;10413238;28;20048;-76
2023/05/07 18:59:37;;;;;;;14.20;10.93;;;;;;;13.96;100.00;102042.44;10379447;28;20038;-74
2023/05/07 19:04:38;;;;;;;13.70;12.15;;;;;;;13.77;100.00;102059.25;10396549;28;20038;-75
2023/05/07 19:09:39;;;;;;;12.48;11.05;;;;;;;13.61;100.00;102057.25;10397390;28;20501;-76
2023/05/07 19:14:41;;;;;;;12.35;11.05;;;;;;;13.44;100.00;102055.25;10395665;28;20045;-76
2023/05/07 19:19:43;;;;;;;13.18;11.25;;;;;;;13.26;100.00;102055.38;10393202;28;20037;-76
2023/05/07 19:24:45;;;;;;;13.55;10.70;;;;;;;12.75;100.00;102029.34;10395140;28;20132;-76
2023/05/07 19:29:45;;;;;;;12.50;10.88;;;;;;;12.99;100.00;102068.88;10411826;28;20124;-76
2023/05/07 19:34:46;;;;;;;14.55;11.55;;;;;;;12.90;100.00;102079.47;10413173;28;20038;-76
2023/05/07 19:39:46;;;;;;;11.10;9.85;;;;;;;12.77;100.00;102079.69;10392448;28;20073;-76
2023/05/07 19:44:47;;;;;;;15.60;10.77;;;;;;;12.65;100.00;102080.53;10394104;28;20449;-76
2023/05/07 19:49:48;;;;;;;14.55;10.80;;;;;;;12.55;100.00;102090.47;10398174;28;20042;-76
2023/05/07 19:54:48;;;;;;;12.88;11.20;;;;;;;12.49;100.00;102095.88;10381370;28;20046;-75
2023/05/07 19:59:49;;;;;;;20.17;10.98;;;;;;;12.41;100.00;102104.50;10411967;28;20556;-76
2023/05/07 20:04:49;;;;;;;12.27;10.82;;;;;;;12.26;100.00;102110.47;10395038;28;20048;-76
2023/05/07 20:09:50;;;;;;;15.35;11.95;;;;;;;12.07;100.00;102101.41;10394340;28;20045;-76
2023/05/07 20:14:50;;;;;;;13.35;11.32;;;;;;;12.02;100.00;102098.50;10408668;28;20049;-76
2023/05/07 20:19:53;;;;;;;11.70;9.88;;;;;;;11.98;100.00;102110.25;10411316;28;20041;-76
2023/05/07 20:24:53;;;;;;;14.85;10.77;;;;;;;11.92;100.00;102106.50;10410997;28;20076;-77
2023/05/07 20:29:54;;;;;;;11.75;10.07;;;;;;;11.84;100.00;102113.16;10411463;28;20168;-76
2023/05/07 20:34:54;;;;;;;13.57;9.90;;;;;;;11.77;100.00;102111.56;10412722;28;20038;-76
2023/05/07 20:39:55;;;;;;;12.85;9.52;;;;;;;11.73;100.00;102115.88;10411456;28;20037;-75
2023/05/07 20:44:55;;;;;;;11.90;9.73;;;;;;;11.68;100.00;102113.81;10384844;28;20489;-74
2023/05/07 20:49:56;;;;;;;9.57;8.57;;;;;;;11.63;100.00;102122.75;10418861;28;20041;-76
2023/05/07 20:54:57;;;;;;;10.82;9.73;;;;;;;11.55;100.00;102120.31;10418345;28;20050;-76
2023/05/07 20:59:57;;;;;;;12.23;9.13;;;;;;;11.49;100.00;102126.75;10388388;28;20041;-77
2023/05/07 21:04:58;;;;;;;12.52;8.50;;;;;;;11.42;100.00;102135.09;10420142;28;20041;-76
2023/05/07 21:09:58;;;;;;;11.07;9.23;;;;;;;11.38;100.00;102139.38;10384264;28;20029;-76
2023/05/07 21:14:59;;;;;;;13.35;9.52;;;;;;;11.32;100.00;102134.78;10418155;28;20037;-76
2023/05/07 21:20:01;;;;;;;13.43;10.00;;;;;;;11.28;100.00;102141.81;10400090;28;20033;-75
2023/05/07 21:25:01;;;;;;;13.75;9.32;;;;;;;11.20;100.00;102133.84;10417754;28;20037;-76
2023/05/07 21:30:03;;;;;;;11.27;9.40;;;;;;;11.10;100.00;102140.75;10416657;28;20037;-75
2023/05/07 21:35:04;;;;;;;12.73;9.40;;;;;;;11.03;100.00;102144.63;10383519;28;20057;-76
2023/05/07 21:40:05;;;;;;;13.18;9.40;;;;;;;10.95;100.00;102144.91;10416915;28;20061;-75
2023/05/07 21:45:06;;;;;;;15.00;9.95;;;;;;;10.82;100.00;102143.94;10416915;28;20049;-75
2023/05/07 21:50:07;;;;;;;11.93;9.93;;;;;;;10.74;100.00;102157.16;10399413;28;20060;-75
2023/05/07 21:55:08;;;;;;;13.07;10.45;;;;;;;10.68;100.00;102158.91;10415105;28;20144;-76
2023/05/07 22:00:09;;;;;;;13.15;9.73;;;;;;;10.65;100.00;102160.19;10417646;28;20076;-69
2023/05/07 22:05:09;;;;;;;11.07;9.88;;;;;;;10.56;100.00;102164.28;10399647;28;20049;-76
2023/05/07 22:10:10;;;;;;;11.40;9.60;;;;;;;10.48;100.00;102165.41;10364048;28;20041;-76
2023/05/07 22:15:10;;;;;;;13.93;10.80;;;;;;;10.41;100.00;102174.75;10415836;28;20060;-75
2023/05/07 22:20:11;;;;;;;15.05;10.57;;;;;;;10.34;100.00;102171.22;10415746;28;20048;-75
2023/05/07 22:25:11;;;;;;;12.43;10.45;;;;;;;10.28;100.00;102182.00;10381311;28;20389;-76